createdAt,value
2018-03-01T00:00:27.332Z,16
2018-03-01T00:01:25.907Z,16
2018-03-01T00:02:24.582Z,16
2018-03-01T00:03:23.270Z,16
2018-03-01T00:04:21.831Z,16
2018-03-01T00:05:20.300Z,16
2018-03-01T00:06:18.874Z,15
2018-03-01T00:07:17.448Z,15
2018-03-01T00:08:16.123Z,15
2018-03-01T00:09:14.697Z,15
2018-03-01T00:10:13.285Z,15
2018-03-01T00:11:11.945Z,15
2018-03-01T00:12:10.417Z,15
2018-03-01T00:13:09.108Z,15
2018-03-01T00:14:07.768Z,15
2018-03-01T00:15:06.242Z,15
2018-03-01T00:16:04.812Z,15
2018-03-01T00:17:03.383Z,15
2018-03-01T00:18:01.958Z,15
2018-03-01T00:19:00.634Z,15
2018-03-01T00:19:59.206Z,15
2018-03-01T00:20:57.780Z,15
2018-03-01T00:21:56.353Z,15
2018-03-01T00:22:54.928Z,15
2018-03-01T00:23:53.504Z,15
2018-03-01T00:24:52.175Z,15
2018-03-01T00:25:50.771Z,15
2018-03-01T00:26:49.323Z,15
2018-03-01T00:27:47.895Z,15
2018-03-01T00:28:46.468Z,15
2018-03-01T00:29:45.041Z,15
2018-03-01T00:30:43.734Z,15
2018-03-01T00:31:42.297Z,15
2018-03-01T00:32:40.866Z,15
2018-03-01T00:33:39.437Z,15
2018-03-01T00:34:38.113Z,15
2018-03-01T00:35:36.709Z,15
2018-03-01T00:36:35.259Z,15
2018-03-01T00:37:33.837Z,15
2018-03-01T00:38:32.410Z,15
2018-03-01T00:39:30.978Z,15
2018-03-01T00:40:29.568Z,15
2018-03-01T00:41:28.244Z,15
2018-03-01T00:42:26.818Z,15
2018-03-01T00:43:25.389Z,15
2018-03-01T00:44:23.947Z,15
2018-03-01T00:45:22.528Z,15
2018-03-01T00:46:21.093Z,15
2018-03-01T00:47:19.772Z,15
2018-03-01T00:48:18.343Z,15
2018-03-01T00:49:16.916Z,15
2018-03-01T00:50:15.489Z,15
2018-03-01T00:51:14.063Z,15
2018-03-01T00:52:12.636Z,15
2018-03-01T00:53:11.312Z,15
2018-03-01T00:54:09.884Z,15
2018-03-01T00:55:08.457Z,15
2018-03-01T00:56:07.046Z,15
2018-03-01T00:57:05.604Z,15
2018-03-01T00:58:04.176Z,15
2018-03-01T00:59:02.853Z,15
2018-03-01T01:00:01.426Z,15
2018-03-01T01:01:00.000Z,15
2018-03-01T01:01:58.575Z,15
2018-03-01T01:02:57.147Z,15
2018-03-01T01:03:55.719Z,15
2018-03-01T01:04:54.397Z,15
2018-03-01T01:05:53.073Z,15
2018-03-01T01:06:51.541Z,15
2018-03-01T01:07:50.114Z,15
2018-03-01T01:08:48.689Z,15
2018-03-01T01:09:47.262Z,15
2018-03-01T01:10:45.941Z,15
2018-03-01T16:01:28.794Z,17
2018-03-01T16:02:27.367Z,18
2018-03-01T16:03:26.041Z,18
2018-03-01T16:04:24.716Z,19
2018-03-01T16:05:23.187Z,19
2018-03-01T16:06:21.776Z,19
2018-03-01T16:07:20.350Z,19
2018-03-01T16:08:18.907Z,20
2018-03-01T16:09:17.588Z,20
2018-03-01T16:10:16.181Z,20
2018-03-01T16:11:14.744Z,20
2018-03-01T16:12:13.324Z,20
2018-03-01T16:13:11.875Z,20
2018-03-01T16:14:10.451Z,20
2018-03-01T16:15:09.023Z,20
2018-03-01T16:16:07.714Z,21
2018-03-01T16:17:06.287Z,21
2018-03-01T16:18:04.860Z,21
2018-03-01T16:19:03.468Z,21
2018-03-01T16:20:01.990Z,21
2018-03-01T16:21:00.667Z,21
2018-03-01T16:21:59.256Z,21
2018-03-01T16:22:57.829Z,21
2018-03-01T16:23:56.401Z,21
2018-03-01T16:24:54.958Z,21
2018-03-01T16:25:53.738Z,21
2018-03-01T16:26:52.210Z,22
2018-03-01T16:27:50.788Z,22
2018-03-01T16:28:49.354Z,22
2018-03-01T16:29:48.030Z,22
2018-03-01T16:30:46.543Z,22
2018-03-01T16:31:45.074Z,22
2018-03-01T16:32:43.749Z,22
2018-03-01T16:33:42.323Z,22
2018-03-01T16:34:40.897Z,22
2018-03-01T16:35:39.472Z,22
2018-03-01T16:36:38.044Z,22
2018-03-01T16:37:36.616Z,22
2018-03-01T16:38:35.294Z,22
2018-03-01T16:39:33.866Z,22
2018-03-01T16:40:32.438Z,22
2018-03-01T16:41:31.012Z,22
2018-03-01T16:42:29.585Z,22
2018-03-01T16:43:28.157Z,22
2018-03-01T16:44:26.836Z,22
2018-03-01T16:45:25.407Z,22
2018-03-01T16:46:23.980Z,22
2018-03-01T16:47:22.552Z,22
2018-03-01T16:48:21.127Z,22
2018-03-01T16:49:19.724Z,22
2018-03-01T16:50:18.379Z,22
2018-03-01T16:51:16.950Z,22
2018-03-01T16:52:15.522Z,22
2018-03-01T16:53:14.096Z,22
2018-03-01T16:54:12.667Z,22
2018-03-01T16:55:11.241Z,22
2018-03-01T16:56:09.918Z,22
2018-03-01T16:57:08.490Z,23
2018-03-01T16:58:07.064Z,23
2018-03-01T16:59:05.639Z,23
2018-03-01T17:00:04.214Z,23
2018-03-01T17:01:02.783Z,23
2018-03-01T17:02:01.667Z,23
2018-03-01T17:03:00.054Z,23
2018-03-01T17:03:58.606Z,23
2018-03-01T17:04:57.179Z,23
2018-03-01T17:05:55.751Z,23
2018-03-01T17:06:54.430Z,23
2018-03-01T17:07:53.000Z,23
2018-03-01T17:08:51.798Z,23
2018-03-01T17:09:50.250Z,23
2018-03-01T17:10:48.721Z,23
2018-03-01T17:11:47.294Z,23
2018-03-01T17:12:45.976Z,23
2018-03-01T17:13:44.542Z,23
2018-03-01T17:14:43.218Z,23
2018-03-01T17:15:41.689Z,23
2018-03-01T17:16:40.265Z,23
2018-03-01T17:17:38.836Z,23
2018-03-01T17:18:37.629Z,23
2018-03-01T17:19:36.186Z,23
2018-03-01T17:20:34.657Z,23
2018-03-01T17:21:33.277Z,23
2018-03-01T17:22:31.809Z,23
2018-03-01T17:23:30.378Z,23
2018-03-01T17:24:29.171Z,23
2018-03-01T17:25:27.626Z,23
2018-03-01T17:26:26.319Z,23
2018-03-01T17:27:24.773Z,23
2018-03-01T17:28:23.346Z,23
2018-03-01T17:29:21.922Z,23
2018-03-01T17:30:20.604Z,23
2018-03-01T17:31:19.168Z,23
2018-03-01T17:32:17.742Z,22
2018-03-01T17:33:16.314Z,22
2018-03-01T17:34:14.886Z,22
2018-03-01T17:35:13.461Z,22
2018-03-01T17:36:12.136Z,22
2018-03-01T17:37:10.726Z,22
2018-03-01T17:38:09.283Z,22
2018-03-01T17:39:07.857Z,22
2018-03-01T17:40:06.449Z,22
2018-03-01T17:41:05.001Z,22
2018-03-01T17:42:03.678Z,22
2018-03-01T17:43:02.256Z,22
2018-03-01T17:44:00.825Z,22
2018-03-01T17:44:59.398Z,22
2018-03-01T17:45:58.074Z,22
2018-03-01T17:46:56.647Z,22
2018-03-01T17:47:55.329Z,22
2018-03-01T17:48:53.799Z,22
2018-03-01T17:49:52.373Z,22
2018-03-01T17:50:50.940Z,23
2018-03-01T17:51:49.512Z,23
2018-03-01T17:52:48.188Z,23
2018-03-01T17:53:46.762Z,23
2018-03-01T17:54:45.348Z,23
2018-03-01T17:55:43.908Z,23
2018-03-01T17:56:42.481Z,23
2018-03-01T17:57:41.077Z,23
2018-03-01T17:58:39.730Z,23
2018-03-01T17:59:38.304Z,23
2018-03-01T18:00:36.878Z,23
2018-03-01T18:01:35.450Z,23
2018-03-01T18:02:34.022Z,23
2018-03-01T18:03:32.596Z,22
2018-03-01T18:04:31.288Z,22
2018-03-01T18:05:29.846Z,22
2018-03-01T18:06:28.529Z,22
2018-03-01T18:07:26.992Z,22
2018-03-01T18:08:25.565Z,22
2018-03-01T18:09:24.240Z,22
2018-03-01T18:10:22.818Z,22
2018-03-01T18:11:21.387Z,22
2018-03-01T18:12:19.963Z,22
2018-03-01T18:13:18.535Z,22
2018-03-01T18:14:17.130Z,22
2018-03-01T18:15:15.682Z,22
2018-03-01T18:16:14.357Z,22
2018-03-01T18:17:12.954Z,22
2018-03-01T18:18:11.503Z,22
2018-03-01T18:19:10.179Z,23
2018-03-01T18:20:08.651Z,23
2018-03-01T18:21:07.225Z,23
2018-03-01T18:22:05.930Z,23
2018-03-01T18:23:04.491Z,23
2018-03-01T18:24:03.046Z,23
2018-03-01T18:25:01.723Z,23
2018-03-01T18:26:00.192Z,23
2018-03-01T18:26:58.764Z,23
2018-03-01T18:27:57.448Z,23
2018-03-01T18:28:56.034Z,23
2018-03-01T18:29:54.589Z,23
2018-03-01T18:30:53.159Z,23
2018-03-01T18:31:51.761Z,23
2018-03-01T18:32:50.409Z,23
2018-03-01T18:33:48.981Z,23
2018-03-01T18:34:47.554Z,23
2018-03-01T18:35:46.128Z,22
2018-03-01T18:36:44.701Z,22
2018-03-01T18:37:43.274Z,22
2018-03-01T18:38:41.951Z,22
2018-03-01T18:39:40.625Z,22
2018-03-01T18:40:39.096Z,22
2018-03-01T18:41:37.703Z,22
2018-03-01T18:42:36.243Z,22
2018-03-01T18:43:34.816Z,22
2018-03-01T18:44:33.492Z,22
2018-03-01T18:45:32.067Z,22
2018-03-01T18:46:30.653Z,22
2018-03-01T18:47:29.211Z,22
2018-03-01T18:48:27.786Z,22
2018-03-01T18:49:26.360Z,22
2018-03-01T18:50:25.034Z,22
2018-03-01T18:51:23.613Z,22
2018-03-01T18:52:22.181Z,22
2018-03-01T18:53:20.769Z,22
2018-03-01T18:54:19.326Z,22
2018-03-01T18:55:17.899Z,22
2018-03-01T18:56:16.581Z,22
2018-03-01T18:57:15.150Z,22
2018-03-01T18:58:13.722Z,22
2018-03-01T18:59:12.295Z,22
2018-03-01T19:00:10.872Z,22
2018-03-01T19:01:09.443Z,22
2018-03-01T19:02:08.184Z,22
2018-03-01T19:03:06.690Z,22
2018-03-01T19:04:05.264Z,22
2018-03-01T19:05:03.838Z,22
2018-03-01T19:06:02.410Z,22
2018-03-01T19:07:00.983Z,22
2018-03-01T19:07:59.660Z,22
2018-03-01T19:08:58.232Z,22
2018-03-01T19:09:56.807Z,22
2018-03-01T19:10:55.497Z,22
2018-03-01T19:11:53.956Z,22
2018-03-01T19:12:52.628Z,22
2018-03-01T19:13:51.201Z,22
2018-03-01T19:14:49.776Z,22
2018-03-01T19:15:48.347Z,22
2018-03-01T19:16:46.921Z,22
2018-03-01T19:17:45.492Z,22
2018-03-01T19:18:44.170Z,23
2018-03-01T19:19:42.743Z,23
2018-03-01T19:20:41.317Z,23
2018-03-01T19:21:39.891Z,22
2018-03-01T19:22:38.462Z,22
2018-03-01T19:23:37.055Z,22
2018-03-01T19:24:35.711Z,22
2018-03-01T19:25:34.284Z,22
2018-03-01T19:26:32.858Z,22
2018-03-01T19:27:31.431Z,22
2018-03-01T19:28:30.108Z,22
2018-03-01T19:29:28.578Z,22
2018-03-01T19:30:27.254Z,22
2018-03-01T19:31:25.827Z,22
2018-03-01T19:32:24.399Z,22
2018-03-01T19:33:23.075Z,21
2018-03-01T19:34:21.546Z,21
2018-03-01T19:35:20.120Z,21
2018-03-01T19:36:18.798Z,21
2018-03-01T19:37:17.369Z,21
2018-03-01T19:38:15.942Z,21
2018-03-01T19:39:14.514Z,21
2018-03-01T19:40:13.087Z,21
2018-03-01T19:41:11.669Z,21
2018-03-01T19:42:10.338Z,21
2018-03-01T19:43:09.017Z,21
2018-03-01T19:44:07.484Z,21
2018-03-01T19:45:06.056Z,21
2018-03-01T19:46:04.629Z,21
2018-03-01T19:47:03.203Z,21
2018-03-01T19:48:01.880Z,22
2018-03-01T19:49:00.454Z,22
2018-03-01T19:49:59.025Z,22
2018-03-01T19:50:57.598Z,22
2018-03-01T19:51:56.173Z,22
2018-03-01T19:52:54.848Z,22
2018-03-01T19:53:53.420Z,22
2018-03-01T19:54:51.994Z,22
2018-03-01T19:55:50.774Z,22
2018-03-01T19:56:49.144Z,22
2018-03-01T19:57:47.714Z,22
2018-03-01T19:58:46.390Z,22
2018-03-01T19:59:44.966Z,22
2018-03-01T20:00:43.536Z,22
2018-03-01T20:01:42.415Z,22
2018-03-01T20:02:40.681Z,22
2018-03-01T20:03:39.256Z,22
2018-03-01T20:04:37.932Z,22
2018-03-01T20:05:36.508Z,22
2018-03-01T20:06:35.077Z,22
2018-03-01T20:07:33.649Z,22
2018-03-01T20:08:32.227Z,22
2018-03-01T20:09:30.797Z,22
2018-03-01T20:10:29.474Z,22
2018-03-01T20:11:28.050Z,22
2018-03-01T20:12:26.620Z,22
2018-03-01T20:13:25.193Z,22
2018-03-01T20:14:23.867Z,22
2018-03-01T20:15:22.340Z,22
2018-03-01T20:16:21.015Z,22
2018-03-01T20:17:19.589Z,22
2018-03-01T20:18:18.162Z,22
2018-03-01T20:19:16.736Z,22
2018-03-01T20:20:15.411Z,22
2018-03-01T20:21:13.882Z,22
2018-03-01T20:22:12.557Z,22
2018-03-01T20:23:11.131Z,22
2018-03-01T20:24:09.704Z,22
2018-03-01T20:25:08.277Z,22
2018-03-01T20:26:06.850Z,22
2018-03-01T20:27:05.423Z,22
2018-03-01T20:28:04.100Z,22
2018-03-01T20:29:02.672Z,22
2018-03-01T20:30:01.303Z,22
2018-03-01T20:30:59.920Z,22
2018-03-01T20:31:58.392Z,22
2018-03-01T20:32:56.967Z,22
2018-03-01T20:33:55.640Z,22
2018-03-01T20:34:54.215Z,22
2018-03-01T20:35:52.810Z,22
2018-03-01T20:36:51.361Z,22
2018-03-01T20:37:49.933Z,22
2018-03-01T20:38:48.608Z,22
2018-03-01T20:39:47.187Z,22
2018-03-01T20:40:45.859Z,22
2018-03-01T20:41:44.330Z,22
2018-03-01T20:42:43.004Z,22
2018-03-01T20:43:41.476Z,22
2018-03-01T20:44:40.150Z,22
2018-03-01T20:45:38.724Z,22
2018-03-01T20:46:37.297Z,22
2018-03-01T20:47:35.869Z,22
2018-03-01T20:48:34.459Z,22
2018-03-01T20:49:33.120Z,22
2018-03-01T20:50:31.698Z,22
2018-03-01T20:51:30.268Z,22
2018-03-01T20:52:28.839Z,22
2018-03-01T20:53:27.415Z,22
2018-03-01T20:54:25.985Z,22
2018-03-01T20:55:24.664Z,22
2018-03-01T20:56:23.235Z,22
2018-03-01T20:57:21.807Z,22
2018-03-01T20:58:20.383Z,22
2018-03-01T20:59:19.158Z,22
2018-03-01T21:00:17.528Z,22
2018-03-01T21:01:16.107Z,22
2018-03-01T21:02:14.777Z,22
2018-03-01T21:03:13.351Z,22
2018-03-01T21:04:11.925Z,22
2018-03-01T21:05:10.497Z,22
2018-03-01T21:06:09.068Z,22
2018-03-01T21:07:07.643Z,22
2018-03-01T21:08:06.319Z,22
2018-03-01T21:09:04.891Z,22
2018-03-01T21:10:03.465Z,22
2018-03-01T21:11:02.038Z,22
2018-03-01T21:12:00.612Z,22
2018-03-01T21:12:59.184Z,22
2018-03-01T21:13:57.965Z,22
2018-03-01T21:14:56.434Z,22
2018-03-01T21:15:55.006Z,22
2018-03-01T21:16:53.580Z,22
2018-03-01T21:17:52.153Z,22
2018-03-01T21:18:50.828Z,22
2018-03-01T21:19:49.402Z,22
2018-03-01T21:20:47.976Z,22
2018-03-01T21:21:46.579Z,22
2018-03-01T21:22:45.122Z,22
2018-03-01T21:23:43.695Z,22
2018-03-01T21:24:42.370Z,22
2018-03-01T21:25:40.943Z,22
2018-03-01T21:26:39.517Z,22
2018-03-01T21:27:38.090Z,22
2018-03-01T21:28:36.679Z,22
2018-03-01T21:29:35.236Z,22
2018-03-01T21:30:33.928Z,22
2018-03-01T21:31:32.589Z,22
2018-03-01T21:32:31.061Z,22
2018-03-01T21:33:29.633Z,22
2018-03-01T21:34:28.326Z,22
2018-03-01T21:35:26.991Z,22
2018-03-01T21:36:25.560Z,22
2018-03-01T21:37:24.232Z,22
2018-03-01T21:38:22.601Z,22
2018-03-01T21:39:21.175Z,22
2018-03-01T21:40:19.746Z,22
2018-03-01T21:41:18.321Z,22
2018-03-01T21:42:17.099Z,22
2018-03-01T21:43:15.572Z,22
2018-03-01T21:44:14.145Z,22
2018-03-01T21:45:12.715Z,22
2018-03-01T21:46:11.288Z,21
2018-03-01T21:47:09.860Z,21
2018-03-01T21:48:08.538Z,21
2018-03-01T21:49:07.113Z,21
2018-03-01T21:50:05.686Z,21
2018-03-01T21:51:04.258Z,21
2018-03-01T21:52:02.830Z,21
2018-03-01T21:53:01.405Z,21
2018-03-01T21:54:00.082Z,21
2018-03-01T21:54:58.680Z,21
2018-03-01T21:55:57.227Z,21
2018-03-01T21:56:55.798Z,21
2018-03-01T21:57:54.373Z,21
2018-03-01T21:58:53.053Z,21
2018-03-01T21:59:51.622Z,21
2018-03-01T22:00:50.195Z,21
2018-03-01T22:01:48.768Z,21
2018-03-01T22:02:47.342Z,21
2018-03-01T22:03:46.024Z,21
2018-03-01T22:04:44.590Z,21
2018-03-01T22:05:43.163Z,21
2018-03-01T22:06:41.738Z,21
2018-03-01T22:07:40.309Z,21
2018-03-01T22:08:38.882Z,21
2018-03-01T22:09:37.456Z,21
2018-03-01T22:10:36.234Z,21
2018-03-01T22:11:34.706Z,21
2018-03-01T22:12:33.286Z,21
2018-03-01T22:13:31.854Z,21
2018-03-01T22:14:30.527Z,21
2018-03-01T22:15:29.004Z,21
2018-03-01T22:16:27.674Z,21
2018-03-01T22:17:26.249Z,21
2018-03-01T22:18:24.821Z,21
2018-03-01T22:19:23.394Z,20
2018-03-01T22:20:21.967Z,20
2018-03-01T22:21:20.539Z,20
2018-03-01T22:22:19.217Z,20
2018-03-01T22:23:17.790Z,20
2018-03-01T22:24:16.362Z,20
2018-03-01T22:25:14.935Z,20
2018-03-01T22:26:13.509Z,20
2018-03-01T22:27:12.082Z,20
2018-03-01T22:28:10.760Z,20
2018-03-01T22:29:09.330Z,20
2018-03-01T22:30:07.904Z,20
2018-03-01T22:31:06.477Z,20
2018-03-01T22:32:05.152Z,20
2018-03-01T22:33:03.623Z,20
2018-03-01T22:34:02.300Z,20
2018-03-01T22:35:00.873Z,20
2018-03-01T22:35:59.446Z,20
2018-03-01T22:36:58.019Z,20
2018-03-01T22:37:56.592Z,20
2018-03-01T22:38:55.272Z,20
2018-03-01T22:39:53.841Z,20
2018-03-01T22:40:52.412Z,20
2018-03-01T22:41:50.989Z,20
2018-03-01T22:42:49.560Z,20
2018-03-01T22:43:48.134Z,20
2018-03-01T22:44:46.811Z,20
2018-03-01T22:45:45.384Z,20
2018-03-01T22:46:43.956Z,20
2018-03-01T22:47:42.529Z,20
2018-03-01T22:48:41.103Z,20
2018-03-01T22:49:39.677Z,20
2018-03-01T22:50:38.353Z,20
2018-03-01T22:51:36.926Z,20
2018-03-01T22:52:35.500Z,20
2018-03-01T22:53:34.174Z,20
2018-03-01T22:54:32.645Z,20
2018-03-01T22:55:31.218Z,20
2018-03-01T22:56:29.896Z,20
2018-03-01T22:57:28.467Z,20
2018-03-01T22:58:27.040Z,20
2018-03-01T22:59:25.614Z,20
2018-03-01T23:00:24.187Z,20
2018-03-01T23:01:22.760Z,19
2018-03-01T23:02:21.435Z,19
2018-03-01T23:03:20.009Z,19
2018-03-01T23:04:18.581Z,19
2018-03-01T23:05:17.155Z,19
2018-03-01T23:06:15.728Z,19
2018-03-01T23:07:14.300Z,19
2018-03-01T23:08:12.978Z,19
2018-03-01T23:09:11.554Z,19
2018-03-01T23:10:10.124Z,19
2018-03-01T23:11:08.697Z,19
2018-03-01T23:12:07.373Z,19
2018-03-01T23:13:05.946Z,19
2018-03-01T23:14:04.519Z,19
2018-03-01T23:15:03.095Z,19
2018-03-01T23:16:01.669Z,19
2018-03-01T23:17:00.341Z,19
2018-03-01T23:17:58.811Z,19
2018-03-01T23:18:57.494Z,19
2018-03-01T23:19:56.061Z,19
2018-03-01T23:20:54.635Z,19
2018-03-01T23:21:53.208Z,19
2018-03-01T23:22:51.780Z,19
2018-03-01T23:23:50.459Z,19
2018-03-01T23:24:49.030Z,19
2018-03-01T23:25:47.602Z,18
2018-03-01T23:26:46.175Z,18
2018-03-01T23:27:44.749Z,18
2018-03-01T23:28:43.322Z,18
2018-03-01T23:29:41.896Z,18
2018-03-01T23:30:40.571Z,18
2018-03-01T23:31:39.145Z,18
2018-03-01T23:32:37.722Z,18
2018-03-01T23:33:36.291Z,18
2018-03-01T23:34:34.865Z,18
2018-03-01T23:35:33.437Z,18
2018-03-01T23:36:32.113Z,18
2018-03-01T23:37:30.689Z,18
2018-03-01T23:38:29.261Z,18
2018-03-01T23:39:27.840Z,18
2018-03-01T23:40:26.406Z,18
2018-03-01T23:41:24.978Z,18
2018-03-01T23:42:23.655Z,18
2018-03-01T23:43:22.227Z,17
2018-03-01T23:44:20.801Z,17
2018-03-01T23:45:19.374Z,17
2018-03-01T23:46:17.948Z,17
2018-03-01T23:47:16.520Z,17
2018-03-01T23:48:15.197Z,17
2018-03-01T23:49:13.771Z,17
2018-03-01T23:50:12.344Z,17
2018-03-01T23:51:10.915Z,17
2018-03-01T23:52:09.492Z,17
2018-03-01T23:53:08.063Z,17
2018-03-01T23:54:06.739Z,17
2018-03-01T23:55:05.312Z,17
2018-03-01T23:56:03.885Z,17
2018-03-01T23:57:02.459Z,17
2018-03-01T23:58:01.032Z,17
2018-03-01T23:58:59.707Z,17
2018-03-01T23:59:58.281Z,17
